Metar z połowy godziny Komunikat METAR ze strony awiacja.imgw.pl Metar G00 EPMO METAR EPMO 230330Z 15008KT 9999 -RA BKN023 08/05 Q0994 =